sensor_id;sensor_type;location;lat;lon;timestamp;P1;durP1;ratioP1;P2;durP2;ratioP2
61038;SDS011;46919;45.816;3.104;2023-03-23T00:00:46;5.15;;;2.80;;
61038;SDS011;46919;45.816;3.104;2023-03-23T00:03:11;5.43;;;2.65;;
61038;SDS011;46919;45.816;3.104;2023-03-23T00:05:38;5.97;;;2.35;;
61038;SDS011;46919;45.816;3.104;2023-03-23T00:08:06;3.15;;;2.20;;
61038;SDS011;46919;45.816;3.104;2023-03-23T00:10:34;2.65;;;1.90;;
61038;SDS011;46919;45.816;3.104;2023-03-23T00:13:00;3.25;;;2.25;;
61038;SDS011;46919;45.816;3.104;2023-03-23T00:15:29;3.42;;;2.20;;
61038;SDS011;46919;45.816;3.104;2023-03-23T00:18:01;3.83;;;2.20;;
61038;SDS011;46919;45.816;3.104;2023-03-23T00:20:30;5.25;;;2.22;;
61038;SDS011;46919;45.816;3.104;2023-03-23T00:23:04;2.88;;;2.08;;
61038;SDS011;46919;45.816;3.104;2023-03-23T00:25:30;4.10;;;2.00;;
61038;SDS011;46919;45.816;3.104;2023-03-23T00:27:55;3.63;;;2.15;;
61038;SDS011;46919;45.816;3.104;2023-03-23T00:30:21;4.53;;;2.15;;
61038;SDS011;46919;45.816;3.104;2023-03-23T00:32:47;5.40;;;2.20;;
61038;SDS011;46919;45.816;3.104;2023-03-23T00:35:13;3.05;;;2.10;;
61038;SDS011;46919;45.816;3.104;2023-03-23T00:37:39;3.25;;;1.95;;
61038;SDS011;46919;45.816;3.104;2023-03-23T00:40:05;2.10;;;1.80;;
61038;SDS011;46919;45.816;3.104;2023-03-23T00:42:34;3.40;;;2.10;;
61038;SDS011;46919;45.816;3.104;2023-03-23T00:45:02;3.55;;;2.15;;
61038;SDS011;46919;45.816;3.104;2023-03-23T00:47:31;2.33;;;1.70;;
61038;SDS011;46919;45.816;3.104;2023-03-23T00:50:01;3.05;;;2.00;;
61038;SDS011;46919;45.816;3.104;2023-03-23T00:52:27;4.90;;;1.95;;
61038;SDS011;46919;45.816;3.104;2023-03-23T00:54:53;2.30;;;1.70;;
61038;SDS011;46919;45.816;3.104;2023-03-23T00:57:18;2.83;;;1.75;;
61038;SDS011;46919;45.816;3.104;2023-03-23T00:59:44;2.90;;;1.65;;
61038;SDS011;46919;45.816;3.104;2023-03-23T01:02:10;6.18;;;2.00;;
61038;SDS011;46919;45.816;3.104;2023-03-23T01:04:37;2.22;;;1.80;;
61038;SDS011;46919;45.816;3.104;2023-03-23T01:07:03;3.40;;;1.88;;
61038;SDS011;46919;45.816;3.104;2023-03-23T01:09:29;2.90;;;1.83;;
61038;SDS011;46919;45.816;3.104;2023-03-23T01:11:55;3.38;;;2.05;;
61038;SDS011;46919;45.816;3.104;2023-03-23T01:14:21;2.50;;;1.60;;
61038;SDS011;46919;45.816;3.104;2023-03-23T01:16:46;3.42;;;2.00;;
61038;SDS011;46919;45.816;3.104;2023-03-23T01:19:12;2.67;;;1.85;;
61038;SDS011;46919;45.816;3.104;2023-03-23T01:21:38;4.13;;;1.80;;
61038;SDS011;46919;45.816;3.104;2023-03-23T01:24:04;3.15;;;1.85;;
61038;SDS011;46919;45.816;3.104;2023-03-23T01:26:31;4.22;;;2.00;;
61038;SDS011;46919;45.816;3.104;2023-03-23T01:28:56;4.43;;;1.70;;
61038;SDS011;46919;45.816;3.104;2023-03-23T01:31:22;1.83;;;1.20;;
61038;SDS011;46919;45.816;3.104;2023-03-23T01:33:49;2.60;;;1.52;;
61038;SDS011;46919;45.816;3.104;2023-03-23T01:36:17;2.95;;;1.77;;
61038;SDS011;46919;45.816;3.104;2023-03-23T01:38:45;2.58;;;1.58;;
61038;SDS011;46919;45.816;3.104;2023-03-23T01:41:13;4.55;;;1.55;;
61038;SDS011;46919;45.816;3.104;2023-03-23T01:43:55;2.45;;;1.70;;
61038;SDS011;46919;45.816;3.104;2023-03-23T01:46:22;2.17;;;1.27;;
61038;SDS011;46919;45.816;3.104;2023-03-23T01:48:50;2.42;;;1.30;;
61038;SDS011;46919;45.816;3.104;2023-03-23T01:51:16;2.05;;;1.55;;
61038;SDS011;46919;45.816;3.104;2023-03-23T01:53:51;1.95;;;1.40;;
61038;SDS011;46919;45.816;3.104;2023-03-23T01:56:21;1.60;;;1.20;;
61038;SDS011;46919;45.816;3.104;2023-03-23T01:58:52;3.72;;;1.80;;
61038;SDS011;46919;45.816;3.104;2023-03-23T02:01:20;3.90;;;1.65;;
61038;SDS011;46919;45.816;3.104;2023-03-23T02:03:52;2.28;;;1.50;;
61038;SDS011;46919;45.816;3.104;2023-03-23T02:06:20;2.70;;;1.50;;
61038;SDS011;46919;45.816;3.104;2023-03-23T02:08:47;2.90;;;1.50;;
61038;SDS011;46919;45.816;3.104;2023-03-23T02:11:15;5.32;;;1.70;;
61038;SDS011;46919;45.816;3.104;2023-03-23T02:13:43;4.18;;;1.60;;
61038;SDS011;46919;45.816;3.104;2023-03-23T02:16:19;5.72;;;2.03;;
61038;SDS011;46919;45.816;3.104;2023-03-23T02:19:21;6.55;;;2.00;;
61038;SDS011;46919;45.816;3.104;2023-03-23T02:24:42;2.83;;;1.70;;
61038;SDS011;46919;45.816;3.104;2023-03-23T02:35:50;2.38;;;1.33;;
61038;SDS011;46919;45.816;3.104;2023-03-23T02:38:08;2.55;;;1.30;;
61038;SDS011;46919;45.816;3.104;2023-03-23T02:40:41;4.30;;;1.77;;
61038;SDS011;46919;45.816;3.104;2023-03-23T02:43:11;3.47;;;1.60;;
61038;SDS011;46919;45.816;3.104;2023-03-23T02:45:39;4.28;;;2.00;;
61038;SDS011;46919;45.816;3.104;2023-03-23T02:48:08;5.10;;;2.00;;
61038;SDS011;46919;45.816;3.104;2023-03-23T02:50:37;4.30;;;2.03;;
61038;SDS011;46919;45.816;3.104;2023-03-23T02:53:08;3.33;;;1.73;;
61038;SDS011;46919;45.816;3.104;2023-03-23T02:55:36;4.47;;;2.00;;
61038;SDS011;46919;45.816;3.104;2023-03-23T02:58:06;6.80;;;2.70;;
61038;SDS011;46919;45.816;3.104;2023-03-23T03:00:36;3.55;;;2.50;;
61038;SDS011;46919;45.816;3.104;2023-03-23T03:03:02;6.72;;;2.63;;
61038;SDS011;46919;45.816;3.104;2023-03-23T03:08:00;2.83;;;1.88;;
61038;SDS011;46919;45.816;3.104;2023-03-23T03:13:40;3.97;;;1.95;;
61038;SDS011;46919;45.816;3.104;2023-03-23T03:16:33;3.15;;;2.17;;
61038;SDS011;46919;45.816;3.104;2023-03-23T03:19:08;3.78;;;1.30;;
61038;SDS011;46919;45.816;3.104;2023-03-23T03:21:40;4.18;;;1.58;;
61038;SDS011;46919;45.816;3.104;2023-03-23T03:24:08;4.13;;;1.60;;
61038;SDS011;46919;45.816;3.104;2023-03-23T03:26:39;4.90;;;2.10;;
61038;SDS011;46919;45.816;3.104;2023-03-23T03:29:19;3.92;;;2.20;;
61038;SDS011;46919;45.816;3.104;2023-03-23T03:31:48;7.13;;;2.47;;
61038;SDS011;46919;45.816;3.104;2023-03-23T03:34:15;3.75;;;2.08;;
61038;SDS011;46919;45.816;3.104;2023-03-23T03:36:43;3.10;;;1.90;;
61038;SDS011;46919;45.816;3.104;2023-03-23T03:39:10;4.78;;;1.83;;
61038;SDS011;46919;45.816;3.104;2023-03-23T03:41:38;3.83;;;2.10;;
61038;SDS011;46919;45.816;3.104;2023-03-23T03:44:04;4.80;;;2.25;;
61038;SDS011;46919;45.816;3.104;2023-03-23T03:46:33;2.58;;;1.77;;
61038;SDS011;46919;45.816;3.104;2023-03-23T03:49:01;2.08;;;1.52;;
61038;SDS011;46919;45.816;3.104;2023-03-23T03:51:28;3.95;;;1.70;;
61038;SDS011;46919;45.816;3.104;2023-03-23T03:53:55;3.47;;;1.60;;
61038;SDS011;46919;45.816;3.104;2023-03-23T03:56:21;3.30;;;1.77;;
61038;SDS011;46919;45.816;3.104;2023-03-23T03:58:47;5.13;;;1.30;;
61038;SDS011;46919;45.816;3.104;2023-03-23T04:01:14;2.70;;;1.70;;
61038;SDS011;46919;45.816;3.104;2023-03-23T04:03:41;2.00;;;1.67;;
61038;SDS011;46919;45.816;3.104;2023-03-23T04:06:07;1.88;;;1.45;;
61038;SDS011;46919;45.816;3.104;2023-03-23T04:08:33;3.67;;;1.42;;
61038;SDS011;46919;45.816;3.104;2023-03-23T04:10:58;4.80;;;1.50;;
61038;SDS011;46919;45.816;3.104;2023-03-23T04:13:24;3.60;;;1.65;;
61038;SDS011;46919;45.816;3.104;2023-03-23T04:15:49;4.47;;;2.15;;
61038;SDS011;46919;45.816;3.104;2023-03-23T04:18:15;2.88;;;1.85;;
61038;SDS011;46919;45.816;3.104;2023-03-23T04:20:43;4.28;;;2.17;;
61038;SDS011;46919;45.816;3.104;2023-03-23T04:23:12;4.00;;;2.50;;
61038;SDS011;46919;45.816;3.104;2023-03-23T04:25:38;3.42;;;2.25;;
61038;SDS011;46919;45.816;3.104;2023-03-23T04:28:06;4.70;;;2.45;;
61038;SDS011;46919;45.816;3.104;2023-03-23T04:30:32;3.30;;;1.90;;
61038;SDS011;46919;45.816;3.104;2023-03-23T04:32:57;4.20;;;1.63;;
61038;SDS011;46919;45.816;3.104;2023-03-23T04:35:26;2.72;;;1.80;;
61038;SDS011;46919;45.816;3.104;2023-03-23T04:37:52;2.63;;;1.80;;
61038;SDS011;46919;45.816;3.104;2023-03-23T04:40:18;2.67;;;1.67;;
61038;SDS011;46919;45.816;3.104;2023-03-23T04:42:46;2.25;;;1.75;;
61038;SDS011;46919;45.816;3.104;2023-03-23T04:45:13;3.28;;;1.50;;
61038;SDS011;46919;45.816;3.104;2023-03-23T04:47:40;2.33;;;1.58;;
61038;SDS011;46919;45.816;3.104;2023-03-23T04:50:09;1.67;;;1.52;;
61038;SDS011;46919;45.816;3.104;2023-03-23T04:52:37;2.80;;;1.83;;
61038;SDS011;46919;45.816;3.104;2023-03-23T04:55:06;2.03;;;1.50;;
61038;SDS011;46919;45.816;3.104;2023-03-23T04:57:34;3.28;;;1.70;;
61038;SDS011;46919;45.816;3.104;2023-03-23T05:00:00;2.42;;;1.40;;
61038;SDS011;46919;45.816;3.104;2023-03-23T05:02:29;2.92;;;1.52;;
61038;SDS011;46919;45.816;3.104;2023-03-23T05:04:55;2.97;;;1.73;;
61038;SDS011;46919;45.816;3.104;2023-03-23T05:07:22;2.63;;;1.70;;
61038;SDS011;46919;45.816;3.104;2023-03-23T05:09:48;5.47;;;1.63;;
61038;SDS011;46919;45.816;3.104;2023-03-23T05:12:14;4.22;;;2.35;;
61038;SDS011;46919;45.816;3.104;2023-03-23T05:14:40;3.58;;;1.90;;
61038;SDS011;46919;45.816;3.104;2023-03-23T05:17:07;4.10;;;2.20;;
61038;SDS011;46919;45.816;3.104;2023-03-23T05:19:34;3.50;;;1.92;;
61038;SDS011;46919;45.816;3.104;2023-03-23T05:22:00;5.60;;;2.15;;
61038;SDS011;46919;45.816;3.104;2023-03-23T05:24:32;3.17;;;1.85;;
61038;SDS011;46919;45.816;3.104;2023-03-23T05:26:58;3.67;;;1.50;;
61038;SDS011;46919;45.816;3.104;2023-03-23T05:29:24;3.70;;;1.95;;
61038;SDS011;46919;45.816;3.104;2023-03-23T05:31:50;3.35;;;2.00;;
61038;SDS011;46919;45.816;3.104;2023-03-23T05:34:18;6.28;;;2.10;;
61038;SDS011;46919;45.816;3.104;2023-03-23T05:36:44;4.68;;;2.28;;
61038;SDS011;46919;45.816;3.104;2023-03-23T05:39:13;4.82;;;2.60;;
61038;SDS011;46919;45.816;3.104;2023-03-23T05:41:39;5.32;;;2.60;;
61038;SDS011;46919;45.816;3.104;2023-03-23T05:44:05;4.63;;;2.40;;
61038;SDS011;46919;45.816;3.104;2023-03-23T05:46:30;6.82;;;3.55;;
61038;SDS011;46919;45.816;3.104;2023-03-23T05:48:57;8.85;;;4.30;;
61038;SDS011;46919;45.816;3.104;2023-03-23T05:51:22;9.65;;;5.03;;
61038;SDS011;46919;45.816;3.104;2023-03-23T05:53:48;8.52;;;3.70;;
61038;SDS011;46919;45.816;3.104;2023-03-23T05:56:14;6.25;;;3.72;;
61038;SDS011;46919;45.816;3.104;2023-03-23T05:58:40;7.13;;;3.05;;
61038;SDS011;46919;45.816;3.104;2023-03-23T06:01:06;5.65;;;2.88;;
61038;SDS011;46919;45.816;3.104;2023-03-23T06:03:32;6.03;;;3.65;;
61038;SDS011;46919;45.816;3.104;2023-03-23T06:05:57;7.82;;;3.47;;
61038;SDS011;46919;45.816;3.104;2023-03-23T06:08:23;29.02;;;11.23;;
61038;SDS011;46919;45.816;3.104;2023-03-23T06:10:49;24.92;;;9.07;;
61038;SDS011;46919;45.816;3.104;2023-03-23T06:13:15;30.83;;;10.40;;
61038;SDS011;46919;45.816;3.104;2023-03-23T06:15:41;24.10;;;9.50;;
61038;SDS011;46919;45.816;3.104;2023-03-23T06:18:06;16.77;;;6.65;;
61038;SDS011;46919;45.816;3.104;2023-03-23T06:20:32;17.70;;;6.65;;
61038;SDS011;46919;45.816;3.104;2023-03-23T06:22:58;13.30;;;5.78;;
61038;SDS011;46919;45.816;3.104;2023-03-23T06:25:23;13.70;;;5.93;;
61038;SDS011;46919;45.816;3.104;2023-03-23T06:27:49;12.90;;;4.88;;
61038;SDS011;46919;45.816;3.104;2023-03-23T06:30:16;13.50;;;4.05;;
61038;SDS011;46919;45.816;3.104;2023-03-23T06:32:42;8.48;;;3.72;;
61038;SDS011;46919;45.816;3.104;2023-03-23T06:35:11;7.80;;;3.53;;
61038;SDS011;46919;45.816;3.104;2023-03-23T06:37:37;7.07;;;3.60;;
61038;SDS011;46919;45.816;3.104;2023-03-23T06:40:03;9.95;;;3.97;;
61038;SDS011;46919;45.816;3.104;2023-03-23T06:42:33;7.43;;;3.65;;
61038;SDS011;46919;45.816;3.104;2023-03-23T06:44:59;9.00;;;2.42;;
61038;SDS011;46919;45.816;3.104;2023-03-23T06:47:25;6.00;;;2.80;;
61038;SDS011;46919;45.816;3.104;2023-03-23T06:49:51;9.93;;;3.20;;
61038;SDS011;46919;45.816;3.104;2023-03-23T06:52:17;5.18;;;2.97;;
61038;SDS011;46919;45.816;3.104;2023-03-23T06:54:43;5.18;;;2.97;;
61038;SDS011;46919;45.816;3.104;2023-03-23T06:57:08;6.22;;;3.20;;
61038;SDS011;46919;45.816;3.104;2023-03-23T06:59:34;5.88;;;4.30;;
61038;SDS011;46919;45.816;3.104;2023-03-23T07:01:59;7.18;;;3.70;;
61038;SDS011;46919;45.816;3.104;2023-03-23T07:04:25;5.35;;;3.05;;
61038;SDS011;46919;45.816;3.104;2023-03-23T07:06:50;6.38;;;3.70;;
61038;SDS011;46919;45.816;3.104;2023-03-23T07:09:16;7.97;;;3.70;;
61038;SDS011;46919;45.816;3.104;2023-03-23T07:11:41;9.40;;;5.65;;
61038;SDS011;46919;45.816;3.104;2023-03-23T07:14:08;5.90;;;2.80;;
61038;SDS011;46919;45.816;3.104;2023-03-23T07:16:34;10.30;;;4.40;;
61038;SDS011;46919;45.816;3.104;2023-03-23T07:18:59;9.80;;;6.47;;
61038;SDS011;46919;45.816;3.104;2023-03-23T07:21:24;7.22;;;5.10;;
61038;SDS011;46919;45.816;3.104;2023-03-23T07:23:51;7.38;;;3.33;;
61038;SDS011;46919;45.816;3.104;2023-03-23T07:26:16;5.03;;;2.95;;
61038;SDS011;46919;45.816;3.104;2023-03-23T07:28:42;5.20;;;3.20;;
61038;SDS011;46919;45.816;3.104;2023-03-23T07:31:08;3.47;;;2.63;;
61038;SDS011;46919;45.816;3.104;2023-03-23T07:33:34;10.48;;;5.05;;
61038;SDS011;46919;45.816;3.104;2023-03-23T07:36:00;8.30;;;3.50;;
61038;SDS011;46919;45.816;3.104;2023-03-23T07:38:27;11.98;;;7.47;;
61038;SDS011;46919;45.816;3.104;2023-03-23T07:40:52;10.55;;;5.55;;
61038;SDS011;46919;45.816;3.104;2023-03-23T07:43:18;9.13;;;6.10;;
61038;SDS011;46919;45.816;3.104;2023-03-23T07:45:45;5.68;;;3.72;;
61038;SDS011;46919;45.816;3.104;2023-03-23T07:48:11;4.32;;;2.53;;
61038;SDS011;46919;45.816;3.104;2023-03-23T07:50:37;4.70;;;3.10;;
61038;SDS011;46919;45.816;3.104;2023-03-23T07:53:03;6.28;;;4.85;;
61038;SDS011;46919;45.816;3.104;2023-03-23T07:55:28;6.72;;;5.63;;
61038;SDS011;46919;45.816;3.104;2023-03-23T07:57:54;7.25;;;4.35;;
61038;SDS011;46919;45.816;3.104;2023-03-23T08:00:20;6.80;;;3.75;;
61038;SDS011;46919;45.816;3.104;2023-03-23T08:02:49;5.03;;;4.00;;
61038;SDS011;46919;45.816;3.104;2023-03-23T08:05:20;6.60;;;4.20;;
61038;SDS011;46919;45.816;3.104;2023-03-23T08:07:48;5.88;;;3.92;;
61038;SDS011;46919;45.816;3.104;2023-03-23T08:10:14;8.75;;;6.53;;
61038;SDS011;46919;45.816;3.104;2023-03-23T08:12:42;10.05;;;8.98;;
61038;SDS011;46919;45.816;3.104;2023-03-23T08:15:10;8.32;;;6.13;;
61038;SDS011;46919;45.816;3.104;2023-03-23T08:17:42;5.00;;;4.05;;
61038;SDS011;46919;45.816;3.104;2023-03-23T08:20:09;9.43;;;4.43;;
61038;SDS011;46919;45.816;3.104;2023-03-23T08:22:40;12.65;;;6.90;;
61038;SDS011;46919;45.816;3.104;2023-03-23T08:25:09;5.20;;;3.78;;
61038;SDS011;46919;45.816;3.104;2023-03-23T08:27:37;6.75;;;3.40;;
61038;SDS011;46919;45.816;3.104;2023-03-23T08:30:08;6.35;;;4.15;;
61038;SDS011;46919;45.816;3.104;2023-03-23T08:32:38;6.05;;;3.45;;
61038;SDS011;46919;45.816;3.104;2023-03-23T08:35:04;6.45;;;3.97;;
61038;SDS011;46919;45.816;3.104;2023-03-23T08:37:30;5.03;;;3.65;;
61038;SDS011;46919;45.816;3.104;2023-03-23T08:39:56;6.63;;;3.80;;
61038;SDS011;46919;45.816;3.104;2023-03-23T08:42:24;7.30;;;3.83;;
61038;SDS011;46919;45.816;3.104;2023-03-23T08:44:51;4.30;;;3.83;;
61038;SDS011;46919;45.816;3.104;2023-03-23T08:47:16;7.05;;;5.07;;
61038;SDS011;46919;45.816;3.104;2023-03-23T08:49:42;5.82;;;4.30;;
61038;SDS011;46919;45.816;3.104;2023-03-23T08:52:10;8.90;;;5.03;;
61038;SDS011;46919;45.816;3.104;2023-03-23T08:54:36;10.02;;;6.50;;
61038;SDS011;46919;45.816;3.104;2023-03-23T08:57:01;8.30;;;5.30;;
61038;SDS011;46919;45.816;3.104;2023-03-23T08:59:27;6.55;;;3.65;;
61038;SDS011;46919;45.816;3.104;2023-03-23T09:01:53;14.50;;;5.85;;
61038;SDS011;46919;45.816;3.104;2023-03-23T09:04:19;12.25;;;5.50;;
61038;SDS011;46919;45.816;3.104;2023-03-23T09:06:45;9.65;;;5.60;;
61038;SDS011;46919;45.816;3.104;2023-03-23T09:09:11;7.97;;;4.85;;
61038;SDS011;46919;45.816;3.104;2023-03-23T09:11:36;9.55;;;5.18;;
61038;SDS011;46919;45.816;3.104;2023-03-23T09:14:03;10.18;;;6.15;;
61038;SDS011;46919;45.816;3.104;2023-03-23T09:16:30;8.43;;;6.35;;
61038;SDS011;46919;45.816;3.104;2023-03-23T09:18:57;7.13;;;4.55;;
61038;SDS011;46919;45.816;3.104;2023-03-23T09:21:24;5.78;;;3.20;;
61038;SDS011;46919;45.816;3.104;2023-03-23T09:23:50;4.10;;;2.67;;
61038;SDS011;46919;45.816;3.104;2023-03-23T09:26:16;3.33;;;2.40;;
61038;SDS011;46919;45.816;3.104;2023-03-23T09:28:42;4.57;;;2.65;;
61038;SDS011;46919;45.816;3.104;2023-03-23T09:31:09;8.27;;;3.45;;
61038;SDS011;46919;45.816;3.104;2023-03-23T09:33:36;5.88;;;3.25;;
61038;SDS011;46919;45.816;3.104;2023-03-23T09:36:02;15.60;;;3.85;;
61038;SDS011;46919;45.816;3.104;2023-03-23T09:38:29;7.93;;;3.50;;
61038;SDS011;46919;45.816;3.104;2023-03-23T09:41:21;7.05;;;2.92;;
61038;SDS011;46919;45.816;3.104;2023-03-23T09:49:32;6.53;;;2.78;;
61038;SDS011;46919;45.816;3.104;2023-03-23T09:52:12;5.93;;;3.10;;
61038;SDS011;46919;45.816;3.104;2023-03-23T09:54:41;4.35;;;3.20;;
61038;SDS011;46919;45.816;3.104;2023-03-23T09:57:28;4.60;;;2.50;;
61038;SDS011;46919;45.816;3.104;2023-03-23T10:00:06;7.70;;;4.88;;
61038;SDS011;46919;45.816;3.104;2023-03-23T10:02:41;8.38;;;4.85;;
61038;SDS011;46919;45.816;3.104;2023-03-23T10:05:30;12.07;;;8.00;;
61038;SDS011;46919;45.816;3.104;2023-03-23T10:07:59;4.70;;;3.13;;
61038;SDS011;46919;45.816;3.104;2023-03-23T10:10:32;6.47;;;2.85;;
61038;SDS011;46919;45.816;3.104;2023-03-23T10:13:13;6.10;;;2.57;;
61038;SDS011;46919;45.816;3.104;2023-03-23T10:15:45;5.50;;;2.65;;
61038;SDS011;46919;45.816;3.104;2023-03-23T10:18:14;4.38;;;2.42;;
61038;SDS011;46919;45.816;3.104;2023-03-23T10:20:46;6.15;;;2.75;;
61038;SDS011;46919;45.816;3.104;2023-03-23T10:31:32;6.47;;;4.07;;
61038;SDS011;46919;45.816;3.104;2023-03-23T10:34:03;7.13;;;4.95;;
61038;SDS011;46919;45.816;3.104;2023-03-23T10:36:37;10.38;;;5.57;;
61038;SDS011;46919;45.816;3.104;2023-03-23T10:39:17;6.20;;;4.38;;
61038;SDS011;46919;45.816;3.104;2023-03-23T10:41:46;7.53;;;3.45;;
61038;SDS011;46919;45.816;3.104;2023-03-23T10:44:23;5.55;;;3.53;;
61038;SDS011;46919;45.816;3.104;2023-03-23T10:46:57;5.85;;;3.88;;
61038;SDS011;46919;45.816;3.104;2023-03-23T10:49:27;10.82;;;3.97;;
61038;SDS011;46919;45.816;3.104;2023-03-23T10:52:04;5.47;;;3.60;;
61038;SDS011;46919;45.816;3.104;2023-03-23T10:54:36;7.17;;;3.10;;
61038;SDS011;46919;45.816;3.104;2023-03-23T10:57:21;6.72;;;3.15;;
61038;SDS011;46919;45.816;3.104;2023-03-23T10:59:57;6.10;;;2.50;;
61038;SDS011;46919;45.816;3.104;2023-03-23T11:02:26;5.85;;;2.80;;
61038;SDS011;46919;45.816;3.104;2023-03-23T11:05:00;4.95;;;3.00;;
61038;SDS011;46919;45.816;3.104;2023-03-23T11:07:31;10.07;;;2.83;;
61038;SDS011;46919;45.816;3.104;2023-03-23T11:10:22;4.50;;;1.73;;
61038;SDS011;46919;45.816;3.104;2023-03-23T11:12:56;1.13;;;1.00;;
61038;SDS011;46919;45.816;3.104;2023-03-23T11:15:27;4.35;;;1.70;;
61038;SDS011;46919;45.816;3.104;2023-03-23T11:18:00;3.10;;;1.52;;
61038;SDS011;46919;45.816;3.104;2023-03-23T11:20:34;2.08;;;1.20;;
61038;SDS011;46919;45.816;3.104;2023-03-23T11:23:08;2.05;;;1.10;;
61038;SDS011;46919;45.816;3.104;2023-03-23T11:28:27;2.83;;;1.40;;
61038;SDS011;46919;45.816;3.104;2023-03-23T11:30:57;4.47;;;1.48;;
61038;SDS011;46919;45.816;3.104;2023-03-23T11:33:28;5.10;;;2.15;;
61038;SDS011;46919;45.816;3.104;2023-03-23T11:36:05;2.85;;;1.77;;
61038;SDS011;46919;45.816;3.104;2023-03-23T11:38:33;3.42;;;2.00;;
61038;SDS011;46919;45.816;3.104;2023-03-23T11:41:00;2.83;;;1.80;;
61038;SDS011;46919;45.816;3.104;2023-03-23T11:43:25;6.40;;;1.77;;
61038;SDS011;46919;45.816;3.104;2023-03-23T11:46:02;3.85;;;1.70;;
61038;SDS011;46919;45.816;3.104;2023-03-23T11:48:51;3.38;;;1.45;;
61038;SDS011;46919;45.816;3.104;2023-03-23T11:51:37;5.47;;;1.40;;
61038;SDS011;46919;45.816;3.104;2023-03-23T11:56:44;1.85;;;1.45;;
61038;SDS011;46919;45.816;3.104;2023-03-23T11:59:19;1.80;;;1.30;;
61038;SDS011;46919;45.816;3.104;2023-03-23T12:07:50;1.60;;;1.27;;
61038;SDS011;46919;45.816;3.104;2023-03-23T12:10:46;3.60;;;1.13;;
61038;SDS011;46919;45.816;3.104;2023-03-23T12:19:10;6.43;;;1.60;;
61038;SDS011;46919;45.816;3.104;2023-03-23T12:30:11;4.57;;;1.67;;
61038;SDS011;46919;45.816;3.104;2023-03-23T12:36:15;4.82;;;1.50;;
61038;SDS011;46919;45.816;3.104;2023-03-23T12:42:18;3.03;;;1.38;;
61038;SDS011;46919;45.816;3.104;2023-03-23T12:45:01;5.47;;;1.70;;
61038;SDS011;46919;45.816;3.104;2023-03-23T12:47:40;3.70;;;1.48;;
61038;SDS011;46919;45.816;3.104;2023-03-23T12:58:20;3.22;;;1.42;;
61038;SDS011;46919;45.816;3.104;2023-03-23T13:05:49;1.90;;;1.30;;
61038;SDS011;46919;45.816;3.104;2023-03-23T13:08:25;2.33;;;1.70;;
61038;SDS011;46919;45.816;3.104;2023-03-23T13:10:56;4.28;;;1.50;;
61038;SDS011;46919;45.816;3.104;2023-03-23T13:13:45;3.80;;;1.48;;
61038;SDS011;46919;45.816;3.104;2023-03-23T13:18:59;2.22;;;1.40;;
61038;SDS011;46919;45.816;3.104;2023-03-23T13:21:50;4.82;;;1.98;;
61038;SDS011;46919;45.816;3.104;2023-03-23T13:24:26;3.55;;;1.38;;
61038;SDS011;46919;45.816;3.104;2023-03-23T13:26:55;4.68;;;1.42;;
61038;SDS011;46919;45.816;3.104;2023-03-23T13:29:23;3.80;;;1.45;;
61038;SDS011;46919;45.816;3.104;2023-03-23T13:31:50;2.70;;;1.60;;
61038;SDS011;46919;45.816;3.104;2023-03-23T13:34:20;2.85;;;1.50;;
61038;SDS011;46919;45.816;3.104;2023-03-23T13:37:02;2.37;;;1.60;;
61038;SDS011;46919;45.816;3.104;2023-03-23T13:39:37;2.58;;;1.50;;
61038;SDS011;46919;45.816;3.104;2023-03-23T13:44:53;2.17;;;1.60;;
61038;SDS011;46919;45.816;3.104;2023-03-23T13:57:56;1.58;;;1.30;;
61038;SDS011;46919;45.816;3.104;2023-03-23T14:05:39;1.77;;;1.55;;
61038;SDS011;46919;45.816;3.104;2023-03-23T14:10:52;4.50;;;1.75;;
61038;SDS011;46919;45.816;3.104;2023-03-23T14:13:42;5.25;;;1.60;;
61038;SDS011;46919;45.816;3.104;2023-03-23T14:16:32;8.52;;;1.70;;
61038;SDS011;46919;45.816;3.104;2023-03-23T14:19:15;4.38;;;1.80;;
61038;SDS011;46919;45.816;3.104;2023-03-23T14:21:49;3.33;;;1.40;;
61038;SDS011;46919;45.816;3.104;2023-03-23T14:26:50;6.60;;;2.20;;
61038;SDS011;46919;45.816;3.104;2023-03-23T14:29:17;3.25;;;2.03;;
61038;SDS011;46919;45.816;3.104;2023-03-23T14:31:43;5.88;;;1.80;;
61038;SDS011;46919;45.816;3.104;2023-03-23T14:34:13;4.97;;;2.00;;
61038;SDS011;46919;45.816;3.104;2023-03-23T14:36:41;2.45;;;1.80;;
61038;SDS011;46919;45.816;3.104;2023-03-23T14:41:37;3.70;;;1.60;;
61038;SDS011;46919;45.816;3.104;2023-03-23T14:44:03;7.20;;;1.98;;
61038;SDS011;46919;45.816;3.104;2023-03-23T14:46:33;2.83;;;1.65;;
61038;SDS011;46919;45.816;3.104;2023-03-23T14:49:00;3.88;;;1.65;;
61038;SDS011;46919;45.816;3.104;2023-03-23T14:51:28;4.78;;;1.60;;
61038;SDS011;46919;45.816;3.104;2023-03-23T14:53:54;3.20;;;1.80;;
61038;SDS011;46919;45.816;3.104;2023-03-23T14:56:20;4.13;;;1.88;;
61038;SDS011;46919;45.816;3.104;2023-03-23T14:58:51;1.60;;;1.40;;
61038;SDS011;46919;45.816;3.104;2023-03-23T15:01:27;3.13;;;1.60;;
61038;SDS011;46919;45.816;3.104;2023-03-23T15:06:26;5.00;;;1.77;;
61038;SDS011;46919;45.816;3.104;2023-03-23T15:08:56;6.15;;;1.70;;
61038;SDS011;46919;45.816;3.104;2023-03-23T15:11:26;5.13;;;1.80;;
61038;SDS011;46919;45.816;3.104;2023-03-23T15:13:55;3.90;;;1.70;;
61038;SDS011;46919;45.816;3.104;2023-03-23T15:18:50;3.92;;;1.95;;
61038;SDS011;46919;45.816;3.104;2023-03-23T15:21:21;2.22;;;1.75;;
61038;SDS011;46919;45.816;3.104;2023-03-23T15:23:49;6.47;;;2.08;;
61038;SDS011;46919;45.816;3.104;2023-03-23T15:26:26;2.17;;;1.52;;
61038;SDS011;46919;45.816;3.104;2023-03-23T15:29:10;5.53;;;1.92;;
61038;SDS011;46919;45.816;3.104;2023-03-23T15:31:39;5.30;;;1.98;;
61038;SDS011;46919;45.816;3.104;2023-03-23T15:34:10;3.63;;;1.60;;
61038;SDS011;46919;45.816;3.104;2023-03-23T15:36:40;5.57;;;1.77;;
61038;SDS011;46919;45.816;3.104;2023-03-23T15:39:05;1.75;;;1.38;;
61038;SDS011;46919;45.816;3.104;2023-03-23T15:41:34;6.18;;;1.60;;
61038;SDS011;46919;45.816;3.104;2023-03-23T15:44:12;4.03;;;1.70;;
61038;SDS011;46919;45.816;3.104;2023-03-23T15:46:54;6.75;;;2.20;;
61038;SDS011;46919;45.816;3.104;2023-03-23T15:49:28;2.28;;;1.65;;
61038;SDS011;46919;45.816;3.104;2023-03-23T15:51:53;5.50;;;1.60;;
61038;SDS011;46919;45.816;3.104;2023-03-23T15:54:19;3.65;;;1.50;;
61038;SDS011;46919;45.816;3.104;2023-03-23T15:56:44;7.50;;;1.70;;
61038;SDS011;46919;45.816;3.104;2023-03-23T15:59:10;2.70;;;1.58;;
61038;SDS011;46919;45.816;3.104;2023-03-23T16:01:37;2.65;;;1.40;;
61038;SDS011;46919;45.816;3.104;2023-03-23T16:04:12;2.92;;;1.70;;
61038;SDS011;46919;45.816;3.104;2023-03-23T16:06:42;5.78;;;1.70;;
61038;SDS011;46919;45.816;3.104;2023-03-23T16:09:15;3.47;;;1.48;;
61038;SDS011;46919;45.816;3.104;2023-03-23T16:11:43;5.85;;;1.90;;
61038;SDS011;46919;45.816;3.104;2023-03-23T16:14:08;4.75;;;1.75;;
61038;SDS011;46919;45.816;3.104;2023-03-23T16:19:06;3.50;;;1.98;;
61038;SDS011;46919;45.816;3.104;2023-03-23T16:21:35;4.70;;;3.17;;
61038;SDS011;46919;45.816;3.104;2023-03-23T16:24:00;2.72;;;2.22;;
61038;SDS011;46919;45.816;3.104;2023-03-23T16:26:26;2.85;;;1.42;;
61038;SDS011;46919;45.816;3.104;2023-03-23T16:28:51;19.73;;;12.48;;
61038;SDS011;46919;45.816;3.104;2023-03-23T16:31:17;5.32;;;3.00;;
61038;SDS011;46919;45.816;3.104;2023-03-23T16:33:42;4.32;;;1.83;;
61038;SDS011;46919;45.816;3.104;2023-03-23T16:36:16;3.65;;;1.70;;
61038;SDS011;46919;45.816;3.104;2023-03-23T16:38:42;5.03;;;1.67;;
61038;SDS011;46919;45.816;3.104;2023-03-23T16:41:07;3.47;;;1.40;;
61038;SDS011;46919;45.816;3.104;2023-03-23T16:43:33;4.32;;;2.47;;
61038;SDS011;46919;45.816;3.104;2023-03-23T16:46:00;1.77;;;1.17;;
61038;SDS011;46919;45.816;3.104;2023-03-23T16:48:25;4.57;;;1.58;;
61038;SDS011;46919;45.816;3.104;2023-03-23T16:50:51;1.20;;;1.00;;